KMOP/MOP METAR and TAF weather

Enter ICAO airport designator
Station Type Date Time Source
KMOP METAR 2020/07/10 14:56 UTC NOAA

KMOP 101456Z AUTO 13004KT 10SM -DZ SCT040 BKN095 OVC110 23/22 A2978 RMK AO2 P0001 60002 T02300221


Station Type Date Time Source
KMOP Decoded METAR 2020/07/10 14:56 UTC NOAA

Mount Pleasant, Mount Pleasant Municipal Airport, MI, United States (KMOP) 43-37N 84-44W
Jul 10, 2020 - 10:56 AM EDT / 2020.07.10 1456 UTC
Wind: from the SE (130 degrees) at 5 MPH (4 KT):0
Visibility: 10 mile(s):0
Sky conditions: overcast
Weather: light drizzle
Precipitation last hour: 0.01 inches
Temperature: 73.4 F (23.0 C)
Dew Point: 71.8 F (22.1 C)
Relative Humidity: 94%
Pressure (altimeter): 29.78 in. Hg (1008 hPa)
ob: KMOP 101456Z AUTO 13004KT 10SM -DZ SCT040 BKN095 OVC110 23/22 A2978 RMK AO2 P0001 60002 T02300221
cycle: 15

Station Type Date Time Source
KMOP TAF UTC NOAA

Error!

Example: see airport list